createdAt,value
2019-02-10T00:03:06.102Z,5.50
2019-02-10T00:09:36.957Z,5.50
2019-02-10T00:16:10.762Z,5.50
2019-02-10T00:22:42.218Z,5.20
2019-02-10T00:26:06.583Z,5.30
2019-02-10T00:32:37.304Z,5.20
2019-02-10T00:36:01.689Z,5.20
2019-02-10T00:42:32.812Z,5.10
2019-02-10T00:49:03.234Z,5.30
2019-02-10T00:52:27.683Z,5.30
2019-02-10T00:58:58.413Z,5.40
2019-02-10T01:05:28.782Z,5.50
2019-02-10T01:08:53.310Z,5.50
2019-02-10T01:15:24.455Z,5.50
2019-02-10T01:21:57.734Z,5.50
2019-02-10T01:25:23.702Z,5.50
2019-02-10T01:31:55.996Z,5.70
2019-02-10T01:38:26.423Z,5.60
2019-02-10T01:44:57.192Z,5.70
2019-02-10T01:51:28.148Z,6.10
2019-02-10T01:57:58.429Z,6.60
2019-02-10T02:00:28.523Z,6.70
2019-02-10T02:06:59.156Z,6.60
2019-02-10T02:13:30.368Z,6.60
2019-02-10T02:16:54.722Z,6.60
2019-02-10T02:23:25.616Z,6.60
2019-02-10T02:26:50.347Z,6.70
2019-02-10T02:33:21.453Z,6.50
2019-02-10T02:39:51.965Z,6.10
2019-02-10T02:46:25.276Z,6.00
2019-02-10T02:52:56.454Z,6.10
2019-02-10T02:59:27.068Z,6.00
2019-02-10T03:01:58.073Z,6.00
2019-02-10T03:08:28.633Z,6.00
2019-02-10T03:14:59.967Z,5.90
2019-02-10T03:21:31.414Z,6.00
2019-02-10T03:28:01.935Z,5.90
2019-02-10T03:31:26.488Z,5.80
2019-02-10T03:37:57.165Z,5.50
2019-02-10T03:44:27.502Z,5.20
2019-02-10T03:47:51.965Z,5.30
2019-02-10T03:54:22.771Z,5.20
2019-02-10T03:57:47.125Z,5.20
2019-02-10T04:04:18.042Z,5.10
2019-02-10T04:10:49.285Z,4.90
2019-02-10T04:17:21.172Z,4.70
2019-02-10T04:23:52.182Z,4.70
2019-02-10T04:27:16.950Z,4.60
2019-02-10T04:33:47.851Z,4.70
2019-02-10T04:37:12.318Z,4.50
2019-02-10T04:43:43.213Z,4.60
2019-02-10T04:47:07.632Z,4.60
2019-02-10T04:53:38.417Z,4.60
2019-02-10T05:00:11.107Z,4.70
2019-02-10T05:06:42.543Z,4.60
2019-02-10T05:13:13.463Z,4.60
2019-02-10T05:19:44.456Z,4.70
2019-02-10T05:23:09.207Z,4.60
2019-02-10T05:29:39.913Z,4.60
2019-02-10T05:33:07.240Z,4.60
2019-02-10T05:39:38.258Z,4.60
2019-02-10T05:43:02.692Z,4.60
2019-02-10T05:49:33.812Z,4.60
2019-02-10T05:56:04.780Z,4.20
2019-02-10T06:02:35.428Z,4.10
2019-02-10T06:09:06.645Z,4.10
2019-02-10T06:15:37.546Z,4.00
2019-02-10T06:18:07.607Z,3.90
2019-02-10T06:24:38.295Z,4.00
2019-02-10T06:28:02.883Z,4.10
2019-02-10T06:34:33.590Z,4.00
2019-02-10T06:37:58.007Z,3.80
2019-02-10T06:44:28.784Z,3.80
2019-02-10T06:51:00.017Z,3.90
2019-02-10T06:57:30.924Z,3.90
2019-02-10T07:04:04.378Z,4.20
2019-02-10T07:07:28.994Z,4.40
2019-02-10T07:09:59.067Z,4.50
2019-02-10T07:16:38.556Z,5.00
2019-02-10T07:23:38.662Z,5.60
2019-02-10T07:30:12.781Z,5.90
2019-02-10T07:36:52.417Z,6.00
2019-02-10T07:43:32.381Z,6.10
2019-02-10T07:46:17.155Z,6.30
2019-02-10T07:53:03.650Z,5.80
2019-02-10T07:59:46.777Z,5.20
2019-02-10T08:06:23.808Z,4.90
2019-02-10T08:12:57.333Z,5.20
2019-02-10T08:19:39.552Z,5.30
2019-02-10T08:26:28.976Z,5.10
2019-02-10T08:29:53.299Z,5.30
2019-02-10T08:36:49.733Z,5.60
2019-02-10T08:43:23.222Z,6.30
2019-02-10T08:46:47.667Z,6.50
2019-02-10T08:53:21.077Z,6.70
2019-02-10T08:56:45.395Z,6.90
2019-02-10T09:03:19.583Z,7.30
2019-02-10T09:09:47.529Z,7.90
2019-02-10T09:16:17.667Z,8.10
2019-02-10T09:22:48.436Z,8.30
2019-02-10T09:29:18.939Z,8.70
2019-02-10T09:35:50.057Z,9.30
2019-02-10T09:39:14.584Z,9.60
2019-02-10T09:45:45.341Z,9.70
2019-02-10T09:49:09.665Z,9.50
2019-02-10T09:55:39.979Z,9.70
2019-02-10T09:59:04.278Z,9.70
2019-02-10T10:05:34.778Z,10.10
2019-02-10T10:08:59.283Z,10.50
2019-02-10T10:15:29.715Z,10.90
2019-02-10T10:17:59.510Z,10.80
2019-02-10T10:24:30.265Z,11.30
2019-02-10T10:31:01.169Z,12.10
2019-02-10T10:34:25.671Z,12.50
2019-02-10T10:40:56.611Z,12.60
2019-02-10T10:44:21.228Z,11.80
2019-02-10T10:50:51.941Z,11.50
2019-02-10T10:57:25.113Z,11.70
2019-02-10T11:03:55.586Z,11.30
2019-02-10T11:07:20.103Z,11.10
2019-02-10T11:13:51.355Z,10.20
2019-02-10T11:20:22.548Z,9.80
2019-02-10T11:26:54.025Z,9.30
2019-02-10T11:33:26.549Z,9.60
2019-02-10T11:36:50.963Z,9.90
2019-02-10T11:43:22.883Z,10.30
2019-02-10T11:46:47.917Z,10.50
2019-02-10T11:53:18.519Z,10.80
2019-02-10T11:56:43.305Z,11.20
2019-02-10T12:03:14.336Z,11.20
2019-02-10T12:06:38.815Z,11.30
2019-02-10T12:13:10.141Z,10.70
2019-02-10T12:16:34.670Z,10.80
2019-02-10T12:23:05.926Z,11.20
2019-02-10T12:26:12.367Z,11.60
2019-02-10T12:32:43.428Z,12.00
2019-02-10T12:39:14.068Z,12.30
2019-02-10T12:42:38.629Z,12.30
2019-02-10T12:49:09.081Z,12.30
2019-02-10T12:52:33.817Z,12.70
2019-02-10T12:59:04.460Z,13.60
2019-02-10T13:02:28.914Z,13.90
2019-02-10T13:08:59.613Z,13.90
2019-02-10T13:12:23.873Z,13.70
2019-02-10T13:18:54.132Z,13.30
2019-02-10T13:22:16.763Z,13.20
2019-02-10T13:24:46.585Z,13.30
2019-02-10T13:31:17.045Z,13.20
2019-02-10T13:37:47.128Z,12.80
2019-02-10T13:44:17.200Z,12.00
2019-02-10T13:47:41.393Z,11.60
2019-02-10T13:54:11.625Z,11.20
2019-02-10T13:57:35.604Z,10.80
2019-02-10T14:04:06.265Z,10.80
2019-02-10T14:10:36.845Z,11.00
2019-02-10T14:14:01.156Z,11.10
2019-02-10T14:20:32.355Z,11.20
2019-02-10T14:27:03.851Z,10.90
2019-02-10T14:33:38.816Z,10.60
2019-02-10T14:40:07.886Z,10.30
2019-02-10T14:46:38.737Z,10.20
2019-02-10T14:50:03.457Z,10.30
2019-02-10T14:56:34.011Z,10.30
2019-02-10T15:03:05.261Z,10.30
2019-02-10T15:09:36.180Z,10.20
2019-02-10T15:16:07.298Z,10.10
2019-02-10T15:22:37.999Z,10.10
2019-02-10T15:29:08.809Z,10.40
2019-02-10T15:35:39.695Z,10.50
2019-02-10T15:42:10.872Z,10.40
2019-02-10T15:45:35.345Z,10.30
2019-02-10T15:52:06.225Z,10.20
2019-02-10T15:55:30.746Z,10.10
2019-02-10T16:02:01.496Z,10.00
2019-02-10T16:08:32.353Z,9.80
2019-02-10T16:11:56.779Z,9.70
2019-02-10T16:18:27.354Z,9.60
2019-02-10T16:21:52.038Z,9.50
2019-02-10T16:28:22.698Z,9.80
2019-02-10T16:30:52.737Z,9.80
2019-02-10T16:37:22.860Z,9.80
2019-02-10T16:40:47.357Z,9.70
2019-02-10T16:47:17.721Z,8.60
2019-02-10T16:53:48.061Z,7.50
2019-02-10T17:00:20.197Z,6.60
2019-02-10T17:06:50.914Z,6.10
2019-02-10T17:13:21.847Z,5.60
2019-02-10T17:19:52.320Z,4.90
2019-02-10T17:23:16.979Z,4.70
2019-02-10T17:29:47.961Z,4.50
2019-02-10T17:36:18.360Z,4.70
2019-02-10T17:39:42.898Z,4.60
2019-02-10T17:46:13.817Z,4.70
2019-02-10T17:49:38.409Z,4.70
2019-02-10T17:56:10.717Z,4.70
2019-02-10T17:59:35.020Z,4.70
2019-02-10T18:06:08.032Z,4.70
2019-02-10T18:09:32.743Z,4.80
2019-02-10T18:16:04.618Z,4.90
2019-02-10T18:19:29.484Z,5.20
2019-02-10T18:26:04.773Z,5.10
2019-02-10T18:28:54.131Z,5.00
2019-02-10T18:31:40.823Z,5.00
2019-02-10T18:38:26.704Z,5.00
2019-02-10T18:41:50.964Z,5.00
2019-02-10T18:48:24.491Z,5.10
2019-02-10T18:54:58.937Z,5.20
2019-02-10T18:58:23.582Z,5.40
2019-02-10T19:04:58.734Z,5.30
2019-02-10T19:11:30.601Z,5.40
2019-02-10T19:14:15.443Z,5.50
2019-02-10T19:16:46.984Z,5.40
2019-02-10T19:20:11.195Z,5.40
2019-02-10T19:26:59.469Z,5.50
2019-02-10T19:33:31.401Z,5.70
2019-02-10T19:40:03.100Z,5.70
2019-02-10T19:46:47.248Z,5.50
2019-02-10T19:50:11.755Z,5.70
2019-02-10T19:57:01.840Z,5.40
2019-02-10T20:03:46.494Z,5.40
2019-02-10T20:07:11.269Z,5.30
2019-02-10T20:13:59.836Z,5.40
2019-02-10T20:17:24.460Z,5.40
2019-02-10T20:24:03.733Z,5.30
2019-02-10T20:30:48.661Z,5.30
2019-02-10T20:37:23.678Z,5.20
2019-02-10T20:43:56.168Z,5.30
2019-02-10T20:50:28.457Z,5.40
2019-02-10T20:57:01.184Z,5.30
2019-02-10T21:03:42.670Z,5.20
2019-02-10T21:10:18.217Z,5.10
2019-02-10T21:13:42.941Z,5.30
2019-02-10T21:20:16.059Z,4.70
2019-02-10T21:26:48.502Z,4.10
2019-02-10T21:30:13.089Z,3.60
2019-02-10T21:36:45.842Z,3.40
2019-02-10T21:43:24.170Z,3.30
2019-02-10T21:49:54.953Z,3.10
2019-02-10T21:53:19.835Z,3.00
2019-02-10T21:59:50.968Z,3.00
2019-02-10T22:06:21.907Z,3.10
2019-02-10T22:09:46.813Z,3.30
2019-02-10T22:16:17.473Z,3.40
2019-02-10T22:19:42.136Z,3.40
2019-02-10T22:26:13.707Z,3.60
2019-02-10T22:32:44.411Z,3.60
2019-02-10T22:39:15.086Z,3.70
2019-02-10T22:45:45.909Z,3.60
2019-02-10T22:49:10.308Z,3.60
2019-02-10T22:55:41.574Z,3.80
2019-02-10T22:59:06.060Z,3.80
2019-02-10T23:05:37.059Z,3.90
2019-02-10T23:09:01.703Z,4.10
2019-02-10T23:15:32.331Z,4.20
2019-02-10T23:18:56.697Z,4.30
2019-02-10T23:25:27.804Z,4.30
2019-02-10T23:32:00.333Z,4.10
2019-02-10T23:35:24.811Z,3.90
2019-02-10T23:41:55.906Z,3.70
2019-02-10T23:48:26.433Z,3.60
2019-02-10T23:54:57.323Z,3.50
